Polar, Wisconsin
Current Conditions -  °F | °C
As of 10:35 AM on Thursday 23 Oct 2014 (Local Time) from KAIG Reporting Station
Drizzle Drizzle  
Wind Chill: 33°   Ceiling: 1500
Heat Index: 38°   Visibility: 4mi
Dew Point: 38°   Wind: 7mph
Humidity: 97%   Direction: 170°S
Pressure: 30.09"   Gusts: NA
Location:  45.2253°N, 88.9533°W
Report Text: KAIG 231535Z AUTO 17006KT 4SM DZ OVC015 04/03 A3009 RMK AO2 T00360032
Loading
Personal Weather Stations






























Interactive Weather Map
Tropical Storm Tracking
New forecast layout! Learn more

10-Day Weather Forecast

Advertisements
Track Severe Weather on mobile